Strona główna
METAR-TAF:

METAR-TAF

Lotnisko :

Port lotniczy Calvi - Sainte-Catherine

Calvi, Francja

Szerokość geograficzna: 42-32N, Długość geograficzna: 008-48E, wysokość: 64 m

Aktualna obserwacja pogody

Raport powstał 43 minut temu, godzina 08:00 UTC
Wiatr 3 kt od północno-północny wschód, zmienny między północno-północny zachód i wschód
Temperatura 30°C
Wilgotność 40%
Ciśnienie 1020 hPa
Widzialność 10 km lub więcej
Brak chmur poniżej 1500 m i brak chmur cumulonimbus

METAR: LFKC 210800Z AUTO 03003KT 340V090 CAVOK 30/15 Q1020 NOSIG

czas: 10:43 (08:43 UTC)

Prognoza

Raport powstał 6 godziny i 43 minut temu, godzina 02:00 UTC
Prognoza ważna od 21 godzina 03 UTC do 22 godzina 03 UTC
Wiatr 3 kt od południowo-południowy zachód
Widzialność 10 km lub więcej
Brak chmur poniżej 1500 m i brak chmur cumulonimbus
Przejściowo
od 21 godzina 08 UTC do 21 godzina 16 UTC
Wiatr 10 kt od północ

TAF: LFKC 210200Z 2103/2203 20003KT CAVOK TX31/2112Z TN19/2103Z TEMPO 2108/2116 35010KT

Obserwacja i prognoza pogody dla ponad 4000 lotnisk (raport METAR i TAF).

Dostępne stacje oznaczono żółtymi i czerwonymi punktami na mapie.

Najedź kursorem aby zobaczyć nazwę stacji.

Kliknij aby zobaczyć obserwacje i prognozy pogody.

Aby zmienić mapę: kliknij na zielony przycisk z czarnym krzyżykiem, aby powiększyć; na zielony przycisk z myślnikiem, aby pomniejszyć; na zielone strzałki, aby przejść do map sąsiednich.


METAR-TAF: